Time;durP1;ratioP1;P1;durP2;ratioP2;P2;SDS_P1;SDS_P2;PMS_P1;PMS_P2;Temp;Humidity;BMP_temperature;BMP_pressure;BME280_temperature;BME280_humidity;BME280_pressure;Samples;Min_cycle;Max_cycle;Signal;HPM_P1;HPM_P2
2019/04/06 00:00:47;;;;;;;4.6;4.2;;;;;;;22.54;32.35742;990.3356;;;;
2019/04/06 00:02:57;;;;;;;4.2;3.9;;;;;;;22.54;32.33398;990.3438;;;;
2019/04/06 00:05:26;;;;;;;4.3;3.9;;;;;;;22.55;32.32324;990.3105;;;;
2019/04/06 00:07:57;;;;;;;4.6;4.2;;;;;;;22.55;32.31152;990.2913;;;;
2019/04/06 00:10:27;;;;;;;4.3;3.9;;;;;;;22.55;32.32324;990.1602;;;;
2019/04/06 00:12:58;;;;;;;4.7;4.3;;;;;;;22.55;32.2998;990.2012;;;;
2019/04/06 00:15:29;;;;;;;4.2;3.8;;;;;;;22.53;32.31055;990.1675;;;;
2019/04/06 00:18:00;;;;;;;3.9;3.6;;;;;;;22.54;32.29883;990.1113;;;;
2019/04/06 00:20:31;;;;;;;4.2;3.9;;;;;;;22.52;32.30957;990.0559;;;;
2019/04/06 00:23:01;;;;;;;4.5;4.1;;;;;;;22.53;32.30957;990.1284;;;;
2019/04/06 00:25:32;;;;;;;4.6;4.2;;;;;;;22.52;32.30957;990.0012;;;;
2019/04/06 00:28:02;;;;;;;4.4;4;;;;;;;22.52;32.32031;990.0031;;;;
2019/04/06 00:30:40;;;;;;;4.4;4.1;;;;;;;22.51;32.32031;990.0183;;;;
2019/04/06 00:33:07;;;;;;;4.5;4.1;;;;;;;22.5;32.30762;989.9422;;;;
2019/04/06 00:35:35;;;;;;;4.5;4.1;;;;;;;22.51;32.29688;989.9598;;;;
2019/04/06 00:38:07;;;;;;;4.5;4.1;;;;;;;22.51;32.28516;989.9462;;;;
2019/04/06 00:40:36;;;;;;;4.1;3.8;;;;;;;22.49;32.30762;989.9125;;;;
2019/04/06 00:43:07;;;;;;;4.5;4.1;;;;;;;22.48;32.30664;989.9377;;;;
2019/04/06 00:45:38;;;;;;;4.8;4.4;;;;;;;22.48;32.30664;989.9063;;;;
2019/04/06 00:48:09;;;;;;;4.9;4.4;;;;;;;22.48;32.29395;989.8748;;;;
2019/04/06 00:50:39;;;;;;;4.3;3.9;;;;;;;22.47;32.29395;989.8942;;;;
2019/04/06 00:53:10;;;;;;;4.3;3.9;;;;;;;22.46;32.29395;989.9019;;;;
2019/04/06 00:55:41;;;;;;;4.4;4;;;;;;;22.45;32.29297;989.9443;;;;
2019/04/06 00:58:11;;;;;;;4.4;4;;;;;;;22.46;32.28125;989.8527;;;;
2019/04/06 01:00:42;;;;;;;4.1;3.8;;;;;;;22.44;32.29199;989.8756;;;;
2019/04/06 01:03:13;;;;;;;4.6;4.2;;;;;;;22.44;32.25684;989.8113;;;;
2019/04/06 01:05:44;;;;;;;4.8;4.2;;;;;;;22.45;32.24512;989.9092;;;;
2019/04/06 01:08:14;;;;;;;4.5;4.1;;;;;;;22.42;32.29004;989.8611;;;;
2019/04/06 01:10:46;;;;;;;4.3;3.9;;;;;;;22.43;32.26758;989.9417;;;;
2019/04/06 01:13:16;;;;;;;4.3;3.9;;;;;;;22.42;32.23145;989.883;;;;
2019/04/06 01:15:47;;;;;;;4.4;4;;;;;;;22.42;32.20801;989.883;;;;
2019/04/06 01:18:18;;;;;;;4.2;3.8;;;;;;;22.42;32.21973;989.9377;;;;
2019/04/06 01:20:48;;;;;;;4.4;3.8;;;;;;;22.41;32.20703;989.9901;;;;
2019/04/06 01:23:19;;;;;;;4.1;3.8;;;;;;;22.4;32.21777;989.9111;;;;
2019/04/06 01:25:50;;;;;;;4.1;3.7;;;;;;;22.4;32.21777;989.8973;;;;
2019/04/06 01:28:21;;;;;;;4.3;4;;;;;;;22.4;32.20703;989.9152;;;;
2019/04/06 01:30:54;;;;;;;4.5;4.1;;;;;;;22.39;32.19336;989.9362;;;;
2019/04/06 01:33:22;;;;;;;4.9;4.5;;;;;;;22.39;32.18164;989.8951;;;;
2019/04/06 01:35:53;;;;;;;4.5;4.1;;;;;;;22.38;32.18164;989.9517;;;;
2019/04/06 01:38:23;;;;;;;4.5;4.1;;;;;;;22.38;32.14648;989.8833;;;;
2019/04/06 01:40:55;;;;;;;4.5;4.1;;;;;;;22.38;32.14648;989.9417;;;;
2019/04/06 01:43:25;;;;;;;4.8;4.4;;;;;;;22.38;32.13477;989.8697;;;;
2019/04/06 01:45:55;;;;;;;4.4;4;;;;;;;22.39;32.11133;989.9498;;;;
2019/04/06 01:48:26;;;;;;;4.2;3.9;;;;;;;22.37;32.11035;989.9531;;;;
2019/04/06 01:50:57;;;;;;;4.4;4;;;;;;;22.38;32.08691;989.9476;;;;
2019/04/06 01:53:28;;;;;;;4.1;3.8;;;;;;;22.37;32.08691;989.9805;;;;
2019/04/06 01:55:59;;;;;;;4.7;4.3;;;;;;;22.37;32.08594;989.9631;;;;
2019/04/06 01:58:29;;;;;;;4.2;3.9;;;;;;;22.38;32.05176;989.9572;;;;
2019/04/06 02:01:06;;;;;;;4.2;3.9;;;;;;;22.37;32.02734;989.9395;;;;
2019/04/06 02:03:31;;;;;;;4.3;4;;;;;;;22.36;32.0498;989.9021;;;;
2019/04/06 02:06:02;;;;;;;4.2;3.8;;;;;;;22.37;32.02734;989.836;;;;
2019/04/06 02:08:32;;;;;;;4.4;4;;;;;;;22.35;32.02637;989.8394;;;;
2019/04/06 02:11:04;;;;;;;3.9;3.6;;;;;;;22.36;31.99121;989.8416;;;;
2019/04/06 02:13:34;;;;;;;4.1;3.8;;;;;;;22.37;31.95703;989.8848;;;;
2019/04/06 02:16:05;;;;;;;3.9;3.6;;;;;;;22.37;31.94434;989.8538;;;;
2019/04/06 02:18:35;;;;;;;4.1;3.7;;;;;;;22.36;31.94434;989.8279;;;;
2019/04/06 02:21:06;;;;;;;3.9;3.6;;;;;;;22.38;31.91016;989.8616;;;;
2019/04/06 02:23:37;;;;;;;4.1;3.7;;;;;;;22.37;31.89746;989.8401;;;;
2019/04/06 02:26:07;;;;;;;4;3.7;;;;;;;22.37;31.88574;989.9044;;;;
2019/04/06 02:28:38;;;;;;;4;3.6;;;;;;;22.37;31.85059;989.8456;;;;
2019/04/06 02:31:53;;;;;;;3.9;3.6;;;;;;;22.37;31.83887;989.832;;;;
2019/04/06 02:34:04;;;;;;;4.1;3.7;;;;;;;22.37;31.82617;989.7814;;;;
2019/04/06 02:38:58;;;;;;;4;3.6;;;;;;;22.35;31.81445;989.8803;;;;
2019/04/06 02:41:06;;;;;;;4.4;4;;;;;;;22.34;31.82422;989.8644;;;;
2019/04/06 02:43:33;;;;;;;3.8;3.4;;;;;;;22.35;31.79004;989.9447;;;;
2019/04/06 02:46:02;;;;;;;3.5;3.2;;;;;;;22.35;31.7666;989.9819;;;;
2019/04/06 02:48:33;;;;;;;3.8;3.5;;;;;;;22.35;31.75488;989.935;;;;
2019/04/06 02:51:04;;;;;;;4;3.6;;;;;;;22.35;31.74316;989.9231;;;;
2019/04/06 02:53:35;;;;;;;3.6;3.3;;;;;;;22.34;31.74219;989.9423;;;;
2019/04/06 02:56:06;;;;;;;3.9;3.4;;;;;;;22.34;31.71875;989.8918;;;;
2019/04/06 02:58:37;;;;;;;4;3.4;;;;;;;22.34;31.70605;989.8116;;;;
2019/04/06 03:01:08;;;;;;;3.7;3.4;;;;;;;22.33;31.69434;989.8268;;;;
2019/04/06 03:03:38;;;;;;;3.9;3.6;;;;;;;22.32;31.69336;989.8655;;;;
2019/04/06 03:06:09;;;;;;;4;3.7;;;;;;;22.32;31.66992;989.942;;;;
2019/04/06 03:08:39;;;;;;;3.6;3.1;;;;;;;22.32;31.64648;989.9009;;;;
2019/04/06 03:11:10;;;;;;;3.7;3.4;;;;;;;22.32;31.62305;989.9693;;;;
2019/04/06 03:13:41;;;;;;;3.8;3.5;;;;;;;22.31;31.62207;989.9316;;;;
2019/04/06 03:16:11;;;;;;;3.6;3.3;;;;;;;22.3;31.62207;990.0017;;;;
2019/04/06 03:18:42;;;;;;;3.6;3.3;;;;;;;22.29;31.62109;989.9623;;;;
2019/04/06 03:21:13;;;;;;;3.7;3.4;;;;;;;22.3;31.58594;989.9744;;;;
2019/04/06 03:23:43;;;;;;;3.9;3.5;;;;;;;22.3;31.5498;989.9158;;;;
2019/04/06 03:26:14;;;;;;;3.6;3.3;;;;;;;22.29;31.5498;989.8452;;;;
2019/04/06 03:28:45;;;;;;;3.6;3.3;;;;;;;22.29;31.51465;989.8393;;;;
2019/04/06 03:31:16;;;;;;;3.8;3.5;;;;;;;22.28;31.52539;989.843;;;;
2019/04/06 03:33:46;;;;;;;3.5;3.2;;;;;;;22.28;31.49023;989.7961;;;;
2019/04/06 03:36:18;;;;;;;3.8;3.5;;;;;;;22.27;31.50195;989.7665;;;;
2019/04/06 03:38:48;;;;;;;3.8;3.5;;;;;;;22.27;31.4668;989.7391;;;;
2019/04/06 03:41:19;;;;;;;3.5;3.2;;;;;;;22.27;31.46582;989.7274;;;;
2019/04/06 03:43:51;;;;;;;3.8;3.4;;;;;;;22.27;31.46582;989.745;;;;
2019/04/06 03:46:21;;;;;;;3.5;3.2;;;;;;;22.25;31.46484;989.8399;;;;
2019/04/06 03:48:51;;;;;;;3.4;3.1;;;;;;;22.26;31.44141;989.8384;;;;
2019/04/06 03:51:22;;;;;;;3.3;3.1;;;;;;;22.27;31.40723;989.8075;;;;
2019/04/06 03:53:53;;;;;;;3.5;3.2;;;;;;;22.26;31.39453;989.9146;;;;
2019/04/06 03:56:24;;;;;;;3.8;3.5;;;;;;;22.26;31.38281;989.8831;;;;
2019/04/06 03:58:54;;;;;;;3.5;3.2;;;;;;;22.25;31.37012;989.8946;;;;
2019/04/06 04:02:37;;;;;;;3.7;3.4;;;;;;;22.26;31.33594;989.8754;;;;
2019/04/06 04:05:07;;;;;;;3.6;3.3;;;;;;;22.25;31.33496;989.8672;;;;
2019/04/06 04:07:38;;;;;;;3.4;3.1;;;;;;;22.25;31.2998;989.9316;;;;
2019/04/06 04:10:08;;;;;;;3.9;3.6;;;;;;;22.24;31.29883;989.865;;;;
2019/04/06 04:12:36;;;;;;;3.7;3.4;;;;;;;22.23;31.27441;989.9215;;;;
2019/04/06 04:15:07;;;;;;;3.5;3.2;;;;;;;22.24;31.25098;989.9392;;;;
2019/04/06 04:17:38;;;;;;;3.8;3.4;;;;;;;22.24;31.21582;989.7927;;;;
2019/04/06 04:20:09;;;;;;;3.5;3.2;;;;;;;22.24;31.19238;989.8162;;;;
2019/04/06 04:22:39;;;;;;;3.6;3.3;;;;;;;22.23;31.2041;989.8395;;;;
2019/04/06 04:25:10;;;;;;;3.5;3.2;;;;;;;22.23;31.19141;989.8646;;;;
2019/04/06 04:27:41;;;;;;;3.3;3;;;;;;;22.24;31.14453;989.8709;;;;
2019/04/06 04:30:11;;;;;;;3.6;3.3;;;;;;;22.23;31.14453;989.8178;;;;
2019/04/06 04:32:42;;;;;;;3.4;3.1;;;;;;;22.22;31.13184;989.8566;;;;
2019/04/06 04:35:13;;;;;;;3.4;3.1;;;;;;;22.23;31.12109;989.8783;;;;
2019/04/06 04:37:44;;;;;;;3.1;2.9;;;;;;;22.24;31.07422;989.8709;;;;
2019/04/06 04:40:15;;;;;;;3.3;3;;;;;;;22.25;31.05176;989.9551;;;;
2019/04/06 04:42:46;;;;;;;3.5;3.2;;;;;;;22.26;31.01758;989.9614;;;;
2019/04/06 04:45:16;;;;;;;3.4;3.1;;;;;;;22.25;30.98145;989.9766;;;;
2019/04/06 04:47:49;;;;;;;3.4;3.1;;;;;;;22.25;30.96973;989.9961;;;;
2019/04/06 04:50:18;;;;;;;3.4;3.1;;;;;;;22.24;30.93359;989.9606;;;;
2019/04/06 04:52:49;;;;;;;3.6;3.3;;;;;;;22.23;30.93262;990.0034;;;;
2019/04/06 04:55:19;;;;;;;3.5;3.2;;;;;;;22.25;30.875;990.0234;;;;
2019/04/06 04:57:50;;;;;;;3.5;3.2;;;;;;;22.27;30.81738;990.0689;;;;
2019/04/06 05:00:21;;;;;;;3.5;3.2;;;;;;;22.28;30.77051;990.1476;;;;
2019/04/06 05:02:51;;;;;;;3.1;2.9;;;;;;;22.29;30.73633;990.1498;;;;
2019/04/06 05:05:23;;;;;;;3.5;3.2;;;;;;;22.3;30.67871;990.1561;;;;
2019/04/06 05:07:53;;;;;;;3.2;3;;;;;;;22.31;30.66699;990.2145;;;;
2019/04/06 05:10:24;;;;;;;3.2;3;;;;;;;22.3;30.61914;990.152;;;;
2019/04/06 05:12:54;;;;;;;3.7;3.4;;;;;;;22.32;30.50195;990.2755;;;;
2019/04/06 05:15:25;;;;;;;3.7;3.4;;;;;;;22.31;30.4541;990.2595;;;;
2019/04/06 05:17:59;;;;;;;3.8;3.5;;;;;;;22.3;30.38281;990.185;;;;
2019/04/06 05:20:30;;;;;;;4;3.7;;;;;;;22.31;30.27734;990.2869;;;;
2019/04/06 05:23:01;;;;;;;4.6;4.2;;;;;;;22.31;30.19531;990.332;;;;
2019/04/06 05:25:33;;;;;;;4;3.7;;;;;;;22.32;30.125;990.2578;;;;
2019/04/06 05:28:02;;;;;;;3.9;3.6;;;;;;;22.33;30.05566;990.3269;;;;
2019/04/06 05:30:33;;;;;;;4.2;3.8;;;;;;;22.35;30.06836;990.3273;;;;
2019/04/06 05:33:04;;;;;;;4.1;3.7;;;;;;;22.37;29.97559;990.3103;;;;
2019/04/06 05:35:35;;;;;;;3.8;3.5;;;;;;;22.34;29.92578;990.3017;;;;
2019/04/06 05:38:06;;;;;;;3.9;3.6;;;;;;;22.36;29.91602;990.3432;;;;
2019/04/06 05:40:36;;;;;;;4.1;3.8;;;;;;;22.37;29.82227;990.3904;;;;
2019/04/06 05:43:07;;;;;;;4.3;3.9;;;;;;;22.36;29.77441;990.3883;;;;
2019/04/06 05:45:37;;;;;;;3.9;3.5;;;;;;;22.37;29.7041;990.4059;;;;
2019/04/06 05:48:08;;;;;;;4.9;4.1;;;;;;;22.38;29.66895;990.4123;;;;
2019/04/06 05:50:39;;;;;;;3.7;3.4;;;;;;;22.4;29.68262;990.3661;;;;
2019/04/06 05:53:09;;;;;;;3.6;3.3;;;;;;;22.42;29.56641;990.3846;;;;
2019/04/06 05:55:40;;;;;;;4.1;3.7;;;;;;;22.43;29.48438;990.461;;;;
2019/04/06 05:58:11;;;;;;;4.3;3.9;;;;;;;22.43;29.4248;990.4278;;;;
2019/04/06 06:00:42;;;;;;;4.2;3.8;;;;;;;22.45;29.41504;990.4695;;;;
2019/04/06 06:03:12;;;;;;;5.3;4.1;;;;;;;22.47;29.35645;990.5287;;;;
2019/04/06 06:05:43;;;;;;;3.9;3.6;;;;;;;22.51;29.26563;990.575;;;;
2019/04/06 06:08:14;;;;;;;3.8;3.5;;;;;;;22.55;29.2207;990.5977;;;;
2019/04/06 06:10:45;;;;;;;4.4;3.6;;;;;;;22.62;29.08398;990.5941;;;;
2019/04/06 06:13:15;;;;;;;4.2;3.8;;;;;;;22.69;28.92285;990.5731;;;;
2019/04/06 06:15:46;;;;;;;4.1;3.8;;;;;;;22.74;28.85547;990.5435;;;;
2019/04/06 06:18:17;;;;;;;4.1;3.8;;;;;;;22.81;28.76563;990.5691;;;;
2019/04/06 06:20:47;;;;;;;4.2;3.8;;;;;;;22.87;28.66309;990.5609;;;;
2019/04/06 06:23:19;;;;;;;4;3.6;;;;;;;22.95;28.51465;990.5692;;;;
2019/04/06 06:25:49;;;;;;;3.8;3.5;;;;;;;23.03;28.40234;990.7184;;;;
2019/04/06 06:28:19;;;;;;;3.9;3.6;;;;;;;23.14;28.23145;990.7084;;;;
2019/04/06 06:30:50;;;;;;;5.4;4;;;;;;;23.27;28.0625;990.7101;;;;
2019/04/06 06:33:23;;;;;;;4.2;3.8;;;;;;;23.37;27.85645;990.6586;;;;
2019/04/06 06:35:52;;;;;;;5;4.6;;;;;;;23.47;27.67383;990.7084;;;;
2019/04/06 06:38:23;;;;;;;4.9;4.4;;;;;;;23.55;27.57129;990.7183;;;;
2019/04/06 06:40:54;;;;;;;4.9;4.5;;;;;;;23.61;27.49316;990.7222;;;;
2019/04/06 06:43:25;;;;;;;5.1;4.6;;;;;;;23.66;27.40137;990.7742;;;;
2019/04/06 06:45:55;;;;;;;4.6;4.2;;;;;;;23.72;27.29883;990.77;;;;
2019/04/06 06:48:25;;;;;;;4.7;4.3;;;;;;;23.81;27.18555;990.7434;;;;
2019/04/06 06:50:57;;;;;;;4.7;4.3;;;;;;;23.86;27.10645;990.7429;;;;
2019/04/06 06:53:27;;;;;;;6.4;4.4;;;;;;;23.9;27.07324;990.7106;;;;
2019/04/06 06:55:57;;;;;;;5;4.5;;;;;;;23.95;26.99219;990.7355;;;;
2019/04/06 06:58:28;;;;;;;4.6;4.2;;;;;;;23.97;26.92285;990.7439;;;;
2019/04/06 07:00:59;;;;;;;5.3;4.8;;;;;;;24.03;26.85645;990.73;;;;
2019/04/06 07:03:30;;;;;;;4.7;4.3;;;;;;;24.09;26.75293;990.7294;;;;
2019/04/06 07:06:00;;;;;;;4.9;4.3;;;;;;;24.15;26.61523;990.7136;;;;
2019/04/06 07:08:31;;;;;;;4.2;3.8;;;;;;;24.21;26.55859;990.8052;;;;
2019/04/06 07:11:02;;;;;;;4.5;4.1;;;;;;;24.26;26.47949;990.7205;;;;
2019/04/06 07:13:32;;;;;;;4.5;4;;;;;;;24.33;26.38867;990.6537;;;;
2019/04/06 07:16:03;;;;;;;4.5;4.1;;;;;;;24.42;26.2168;990.691;;;;
2019/04/06 07:18:34;;;;;;;4.9;4.2;;;;;;;24.5;26.12598;990.6598;;;;
2019/04/06 07:21:05;;;;;;;4.5;4.1;;;;;;;24.52;26.10352;990.7698;;;;
2019/04/06 07:23:36;;;;;;;4.6;4.2;;;;;;;24.59;26.0127;990.6758;;;;
2019/04/06 07:26:07;;;;;;;4.5;4.1;;;;;;;24.68;25.86328;990.6859;;;;
2019/04/06 07:28:38;;;;;;;5.8;4.4;;;;;;;24.72;25.83008;990.6769;;;;
2019/04/06 07:31:08;;;;;;;4.8;3.8;;;;;;;24.73;25.84375;990.5952;;;;
2019/04/06 07:33:39;;;;;;;4.6;4.2;;;;;;;24.81;25.77637;990.5594;;;;
2019/04/06 07:36:10;;;;;;;4.6;4.2;;;;;;;24.98;25.54883;990.5006;;;;
2019/04/06 07:38:40;;;;;;;4;3.7;;;;;;;25.32;25.08203;990.4967;;;;
2019/04/06 07:41:11;;;;;;;4.4;4;;;;;;;25.72;24.56934;990.4734;;;;
2019/04/06 07:43:42;;;;;;;4.3;3.9;;;;;;;26.3;23.80371;990.5058;;;;
2019/04/06 07:46:12;;;;;;;4.1;3.7;;;;;;;26.41;23.64453;990.4685;;;;
2019/04/06 07:48:43;;;;;;;4.9;3.9;;;;;;;26.7;23.25488;990.4478;;;;
2019/04/06 07:51:15;;;;;;;4.3;3.8;;;;;;;26.96;22.95801;990.4202;;;;
2019/04/06 07:53:45;;;;;;;4.1;3.7;;;;;;;27.39;22.49023;990.3748;;;;
2019/04/06 07:56:16;;;;;;;4.2;3.8;;;;;;;27.54;22.25977;990.3256;;;;
2019/04/06 07:58:47;;;;;;;4.3;3.9;;;;;;;27.61;22.19141;990.3324;;;;
2019/04/06 08:01:18;;;;;;;4.4;4;;;;;;;27.88;21.8584;990.2647;;;;
2019/04/06 08:03:48;;;;;;;4.1;3.7;;;;;;;28.11;21.61914;990.3064;;;;
2019/04/06 08:06:19;;;;;;;5.1;4;;;;;;;28.43;21.26367;990.2444;;;;
2019/04/06 08:08:50;;;;;;;4.3;3.9;;;;;;;28.64;21.07031;990.2378;;;;
2019/04/06 08:11:21;;;;;;;4.2;3.8;;;;;;;28.84;20.79297;990.2353;;;;
2019/04/06 08:13:51;;;;;;;4.2;3.8;;;;;;;28.91;20.71191;990.218;;;;
2019/04/06 08:16:22;;;;;;;3.7;3.4;;;;;;;29.44;20.18555;990.1498;;;;
2019/04/06 08:18:54;;;;;;;4.6;3.2;;;;;;;29.83;19.80762;990.0165;;;;
2019/04/06 08:21:25;;;;;;;4;3.7;;;;;;;30.01;19.61133;990.1355;;;;
2019/04/06 08:23:56;;;;;;;3.9;3.6;;;;;;;29.93;19.65625;990.0743;;;;
2019/04/06 08:26:26;;;;;;;3.1;2.8;;;;;;;30.2;19.37988;990.0569;;;;
2019/04/06 08:28:56;;;;;;;3.1;2.8;;;;;;;30.43;19.14941;990.0432;;;;
2019/04/06 08:31:27;;;;;;;3.1;2.8;;;;;;;30.15;19.37695;990.0668;;;;
2019/04/06 08:33:58;;;;;;;3.4;3.1;;;;;;;30.07;19.51758;990.051;;;;
2019/04/06 08:36:28;;;;;;;3.6;3;;;;;;;30.63;18.91797;990.0233;;;;
2019/04/06 08:39:01;;;;;;;3.7;3.4;;;;;;;30.65;18.89355;990.0234;;;;
2019/04/06 08:41:36;;;;;;;3.6;3.3;;;;;;;30.67;18.84766;990.0393;;;;
2019/04/06 08:44:07;;;;;;;3.5;3.2;;;;;;;31.01;18.5127;990.0106;;;;
2019/04/06 08:46:34;;;;;;;3.4;3.1;;;;;;;30.81;18.67285;989.9855;;;;
2019/04/06 08:49:03;;;;;;;3.4;3.1;;;;;;;30.84;18.65039;990.0547;;;;
2019/04/06 08:51:37;;;;;;;3.2;2.9;;;;;;;31.04;18.4541;990.0007;;;;
2019/04/06 08:54:10;;;;;;;3.1;2.8;;;;;;;31.1;18.41992;989.9844;;;;
2019/04/06 08:56:38;;;;;;;2.6;2.4;;;;;;;30.78;18.75586;989.9916;;;;
2019/04/06 08:59:08;;;;;;;2.9;2.6;;;;;;;29.43;20.16113;989.9601;;;;
2019/04/06 09:01:40;;;;;;;3.2;2.9;;;;;;;27.74;22.20996;989.8812;;;;
2019/04/06 09:04:12;;;;;;;3;2.8;;;;;;;27.22;22.9834;989.883;;;;
2019/04/06 09:06:44;;;;;;;3.2;2.9;;;;;;;27.06;23.26074;989.9099;;;;
2019/04/06 09:09:18;;;;;;;3.3;2.9;;;;;;;26.87;23.47754;989.9056;;;;
2019/04/06 09:11:51;;;;;;;3.3;3;;;;;;;26.7;23.75391;989.8342;;;;
2019/04/06 09:14:24;;;;;;;3.1;2.8;;;;;;;26.57;23.96191;989.8109;;;;
2019/04/06 09:16:55;;;;;;;3.1;2.8;;;;;;;26.62;23.94043;989.7566;;;;
2019/04/06 09:19:22;;;;;;;3;2.7;;;;;;;26.49;24.125;989.7977;;;;
2019/04/06 09:21:54;;;;;;;3.1;2.8;;;;;;;26.34;24.36621;989.7302;;;;
2019/04/06 09:24:22;;;;;;;3;2.7;;;;;;;26.31;24.41113;989.7199;;;;
2019/04/06 09:26:50;;;;;;;3.5;3.2;;;;;;;26.26;24.46875;989.7488;;;;
2019/04/06 09:29:24;;;;;;;2.9;2.7;;;;;;;26.17;24.65332;989.7179;;;;
2019/04/06 09:32:00;;;;;;;3;2.7;;;;;;;26.1;24.75781;989.7107;;;;
2019/04/06 09:34:35;;;;;;;3.6;2.9;;;;;;;25.98;24.90527;989.7087;;;;
2019/04/06 09:37:07;;;;;;;4;3;;;;;;;25.96;24.96289;989.6495;;;;
2019/04/06 09:39:33;;;;;;;4.9;3.1;;;;;;;25.93;24.98535;989.5567;;;;
2019/04/06 09:42:01;;;;;;;3.6;3.3;;;;;;;25.87;25.10059;989.6344;;;;
2019/04/06 09:44:42;;;;;;;3.2;2.5;;;;;;;25.81;25.24023;989.5447;;;;
2019/04/06 09:47:20;;;;;;;2.9;2.5;;;;;;;25.8;25.27539;989.505;;;;
2019/04/06 09:52:23;;;;;;;2.8;2.6;;;;;;;25.72;25.43652;989.4252;;;;
2019/04/06 09:56:32;;;;;;;2.7;2.4;;;;;;;25.68;25.5293;989.2928;;;;
2019/04/06 09:57:33;;;;;;;2.6;2.4;;;;;;;25.58;25.66699;989.311;;;;
2019/04/06 10:02:24;;;;;;;3;2.7;;;;;;;25.46;25.9209;989.2576;;;;
2019/04/06 10:10:12;;;;;;;3.3;3;;;;;;;25.33;26.16309;989.1669;;;;
2019/04/06 10:13:46;;;;;;;3.6;2.9;;;;;;;25.29;26.24316;989.1209;;;;
2019/04/06 10:15:11;;;;;;;3.1;2.7;;;;;;;25.27;26.27734;989.1364;;;;
2019/04/06 10:17:54;;;;;;;2.8;2.6;;;;;;;25.25;26.32422;989.1811;;;;
2019/04/06 10:20:58;;;;;;;3.1;2.7;;;;;;;25.23;26.39453;989.1809;;;;
2019/04/06 10:23:00;;;;;;;3.5;3;;;;;;;25.15;26.52051;989.1495;;;;
2019/04/06 10:26:02;;;;;;;2.7;2.5;;;;;;;25.13;26.55469;989.145;;;;
2019/04/06 10:33:00;;;;;;;3;2.7;;;;;;;25.1;26.68359;989.0308;;;;
2019/04/06 10:35:42;;;;;;;3.8;2.9;;;;;;;25.01;26.81934;989.0114;;;;
2019/04/06 10:41:20;;;;;;;4;3.1;;;;;;;24.97;26.93652;988.9695;;;;
2019/04/06 10:45:22;;;;;;;3.7;3.4;;;;;;;24.95;26.9707;988.8317;;;;
2019/04/06 10:48:18;;;;;;;4.1;3.7;;;;;;;24.87;27.13184;988.8616;;;;
2019/04/06 10:53:13;;;;;;;3.3;3;;;;;;;24.82;27.25977;988.878;;;;
2019/04/06 10:55:41;;;;;;;3.3;3;;;;;;;24.75;27.37305;988.7905;;;;
2019/04/06 11:01:07;;;;;;;4.7;3.4;;;;;;;24.65;27.50977;988.8178;;;;
2019/04/06 11:03:37;;;;;;;3.3;3;;;;;;;24.65;27.54492;988.8315;;;;
2019/04/06 11:05:29;;;;;;;3.2;2.9;;;;;;;24.6;27.61328;988.7522;;;;
2019/04/06 11:10:37;;;;;;;3.1;2.8;;;;;;;24.59;27.67188;988.6716;;;;
2019/04/06 11:13:10;;;;;;;3.1;2.8;;;;;;;24.55;27.74121;988.7042;;;;
2019/04/06 11:15:45;;;;;;;3;2.7;;;;;;;24.51;27.77344;988.6558;;;;
2019/04/06 11:20:45;;;;;;;2.9;2.6;;;;;;;24.51;27.79688;988.6912;;;;
2019/04/06 11:28:22;;;;;;;2.7;2.5;;;;;;;24.52;27.78613;988.6149;;;;
2019/04/06 11:30:37;;;;;;;2.9;2.7;;;;;;;24.51;27.83301;988.6969;;;;
2019/04/06 11:35:33;;;;;;;3;2.7;;;;;;;24.56;27.76465;988.6982;;;;
2019/04/06 11:40:44;;;;;;;3.1;2.8;;;;;;;24.55;27.7998;988.6961;;;;
2019/04/06 11:45:33;;;;;;;3.8;3.1;;;;;;;24.54;27.81152;988.6609;;;;
2019/04/06 11:48:24;;;;;;;3.3;3;;;;;;;24.46;27.95996;988.7271;;;;
2019/04/06 11:55:44;;;;;;;3.2;2.9;;;;;;;24.47;27.96094;988.7844;;;;
2019/04/06 11:58:27;;;;;;;3.4;3.1;;;;;;;24.5;27.92676;988.7947;;;;
2019/04/06 12:01:07;;;;;;;3.3;3;;;;;;;24.51;27.90332;988.6775;;;;
2019/04/06 12:03:08;;;;;;;3.5;2.8;;;;;;;24.51;27.8916;988.7558;;;;
2019/04/06 12:07:56;;;;;;;3.5;3.2;;;;;;;24.53;27.90527;988.7957;;;;
2019/04/06 12:15:31;;;;;;;3.2;2.9;;;;;;;24.58;27.81348;988.6301;;;;
2019/04/06 12:20:27;;;;;;;3.5;3.2;;;;;;;24.53;27.92871;988.723;;;;
2019/04/06 12:22:43;;;;;;;3.5;3.1;;;;;;;24.53;27.92871;988.7778;;;;
2019/04/06 12:25:19;;;;;;;3.7;3.3;;;;;;;24.5;27.97461;988.6791;;;;
2019/04/06 12:27:43;;;;;;;3.5;3.2;;;;;;;24.51;27.97461;988.6735;;;;
2019/04/06 12:32:41;;;;;;;3.2;2.9;;;;;;;24.55;27.90625;988.6178;;;;
2019/04/06 12:35:05;;;;;;;3.4;3.1;;;;;;;24.57;27.89551;988.7338;;;;
2019/04/06 12:37:36;;;;;;;3.4;3.1;;;;;;;24.56;27.88379;988.5925;;;;
2019/04/06 12:40:14;;;;;;;2.9;2.7;;;;;;;24.53;27.92871;988.6326;;;;
2019/04/06 12:43:29;;;;;;;2.9;2.6;;;;;;;24.5;27.97461;988.6106;;;;
2019/04/06 12:55:35;;;;;;;3;2.8;;;;;;;24.35;28.20215;988.6016;;;;
2019/04/06 12:57:50;;;;;;;3.6;3;;;;;;;24.31;28.31738;988.6613;;;;
2019/04/06 13:00:24;;;;;;;3.1;2.8;;;;;;;24.34;28.27246;988.709;;;;
2019/04/06 13:03:07;;;;;;;3;2.7;;;;;;;24.35;28.28516;988.7975;;;;
2019/04/06 13:08:12;;;;;;;3.3;3;;;;;;;24.34;28.33203;988.8225;;;;
2019/04/06 13:10:41;;;;;;;3.2;2.9;;;;;;;24.34;28.33203;988.709;;;;
2019/04/06 13:13:02;;;;;;;3.7;3.2;;;;;;;24.31;28.41211;988.5986;;;;
2019/04/06 13:15:15;;;;;;;3.1;2.9;;;;;;;24.32;28.40137;988.5715;;;;
2019/04/06 13:20:34;;;;;;;3.5;3.2;;;;;;;24.3;28.4707;988.5865;;;;
2019/04/06 13:23:36;;;;;;;3.7;3.4;;;;;;;24.26;28.52832;988.4998;;;;
2019/04/06 13:26:08;;;;;;;3.4;3.1;;;;;;;24.25;28.53906;988.5287;;;;
2019/04/06 13:33:16;;;;;;;3.6;3.3;;;;;;;24.24;28.62109;988.5873;;;;
2019/04/06 13:35:52;;;;;;;3.7;3.2;;;;;;;24.22;28.66699;988.4734;;;;
2019/04/06 13:38:15;;;;;;;4.6;3.8;;;;;;;24.24;28.66797;988.4737;;;;
2019/04/06 13:40:56;;;;;;;3.9;3.5;;;;;;;24.23;28.66797;988.5204;;;;
2019/04/06 13:44:05;;;;;;;4.1;3.5;;;;;;;24.23;28.66797;988.497;;;;
2019/04/06 13:48:42;;;;;;;3.7;3.4;;;;;;;24.22;28.73828;988.5183;;;;
2019/04/06 13:56:27;;;;;;;3.8;3.5;;;;;;;24.16;28.85254;988.3643;;;;
2019/04/06 13:58:23;;;;;;;4;3.6;;;;;;;24.12;28.96875;988.3869;;;;
2019/04/06 14:00:47;;;;;;;4.4;4;;;;;;;24.09;29.02637;988.3805;;;;
2019/04/06 14:03:26;;;;;;;4;3.7;;;;;;;24.07;29.08398;988.3624;;;;
2019/04/06 14:05:41;;;;;;;4.1;3.7;;;;;;;24.04;29.10547;988.3245;;;;
2019/04/06 14:10:00;;;;;;;4.2;3.8;;;;;;;24.03;29.15234;988.3398;;;;
2019/04/06 14:10:50;;;;;;;4.1;3.7;;;;;;;24;29.20996;988.3608;;;;
2019/04/06 14:14:31;;;;;;;3.6;3.3;;;;;;;23.97;29.25488;988.3148;;;;
2019/04/06 14:16:06;;;;;;;4.3;3.9;;;;;;;23.93;29.33496;988.3002;;;;
2019/04/06 14:18:18;;;;;;;4.3;3.9;;;;;;;23.92;29.39355;988.3725;;;;
2019/04/06 14:23:20;;;;;;;3.7;3.4;;;;;;;23.94;29.34766;988.2576;;;;
2019/04/06 14:26:11;;;;;;;3.9;3.6;;;;;;;23.92;29.3584;988.257;;;;
2019/04/06 14:31:04;;;;;;;4;3.6;;;;;;;23.86;29.54297;988.3163;;;;
2019/04/06 14:33:13;;;;;;;3.9;3.6;;;;;;;23.89;29.48633;988.315;;;;
2019/04/06 14:38:19;;;;;;;3.9;3.6;;;;;;;23.97;29.36133;988.2544;;;;
2019/04/06 14:43:09;;;;;;;3.9;3.6;;;;;;;24;29.38672;988.339;;;;
2019/04/06 14:48:03;;;;;;;4.1;3.7;;;;;;;23.99;29.55176;988.2902;;;;
2019/04/06 14:50:35;;;;;;;5.3;3.9;;;;;;;24.01;29.60059;988.1573;;;;
2019/04/06 14:53:09;;;;;;;5.9;4.2;;;;;;;24.06;29.65137;988.1644;;;;
2019/04/06 15:13:21;;;;;;;5.9;5;;;;;;;23.97;30.30762;988.0352;;;;
2019/04/06 15:18:30;;;;;;;6.4;5.1;;;;;;;23.94;30.45996;988.0147;;;;
2019/04/06 15:20:47;;;;;;;7.2;4.8;;;;;;;23.91;30.46973;987.9905;;;;
2019/04/06 15:23:26;;;;;;;6.6;4.5;;;;;;;23.91;30.5293;988.0042;;;;
2019/04/06 15:25:38;;;;;;;7.5;4.8;;;;;;;23.9;30.58691;988.0158;;;;
2019/04/06 15:28:16;;;;;;;5.3;4.5;;;;;;;23.87;30.63281;987.9448;;;;
2019/04/06 15:33:27;;;;;;;5.3;4.8;;;;;;;23.84;30.71387;987.9104;;;;
2019/04/06 15:35:43;;;;;;;5.4;4.9;;;;;;;23.83;30.77246;987.9083;;;;
2019/04/06 15:42:24;;;;;;;6.1;5.1;;;;;;;23.83;30.81934;987.8358;;;;
2019/04/06 15:45:55;;;;;;;5.7;5.1;;;;;;;23.8;30.86523;987.7963;;;;
2019/04/06 15:49:36;;;;;;;7;5.2;;;;;;;23.81;30.88867;987.8;;;;
2019/04/06 15:51:18;;;;;;;5.6;5;;;;;;;23.8;30.91113;987.6786;;;;
2019/04/06 15:59:25;;;;;;;5.3;4.8;;;;;;;23.76;31.03906;987.6915;;;;
2019/04/06 16:00:47;;;;;;;5;4.6;;;;;;;23.75;31.07422;987.699;;;;
2019/04/06 16:03:27;;;;;;;5.3;4.8;;;;;;;23.75;31.08594;987.6676;;;;
2019/04/06 16:05:47;;;;;;;5.2;4.7;;;;;;;23.76;31.03906;987.6504;;;;
2019/04/06 16:08:21;;;;;;;5;4.5;;;;;;;23.77;31.00391;987.6074;;;;
2019/04/06 16:10:59;;;;;;;4.7;4.3;;;;;;;23.77;30.98047;987.6114;;;;
2019/04/06 16:14:33;;;;;;;4.8;4.4;;;;;;;23.77;30.99219;987.6133;;;;
2019/04/06 16:18:30;;;;;;;5;4.6;;;;;;;23.74;31.07324;987.5776;;;;
2019/04/06 16:21:05;;;;;;;5.6;5.1;;;;;;;23.72;31.13086;987.5829;;;;
2019/04/06 16:26:10;;;;;;;5.5;4.9;;;;;;;23.73;31.19043;987.6319;;;;
2019/04/06 16:32:45;;;;;;;5.4;4.9;;;;;;;23.71;31.2959;987.6138;;;;
2019/04/06 16:33:40;;;;;;;5.9;5.3;;;;;;;23.7;31.34277;987.5706;;;;
2019/04/06 16:38:40;;;;;;;5.4;4.9;;;;;;;23.69;31.40039;987.5765;;;;
2019/04/06 16:44:00;;;;;;;6;5.3;;;;;;;23.69;31.43652;987.5862;;;;
2019/04/06 16:46:11;;;;;;;5.6;5.1;;;;;;;23.66;31.49316;987.5737;;;;
2019/04/06 16:54:03;;;;;;;5.7;5.2;;;;;;;23.64;31.62207;987.6395;;;;
2019/04/06 16:56:16;;;;;;;5.5;5;;;;;;;23.62;31.65625;987.5748;;;;
2019/04/06 17:00:21;;;;;;;6;5.4;;;;;;;23.6;31.70215;987.5606;;;;
2019/04/06 17:06:33;;;;;;;5.7;5.2;;;;;;;23.58;31.7832;987.5719;;;;
2019/04/06 17:09:12;;;;;;;6.6;6;;;;;;;23.56;31.8291;987.5302;;;;
2019/04/06 17:12:09;;;;;;;5.9;5.3;;;;;;;23.55;31.85156;987.5925;;;;
2019/04/06 17:14:02;;;;;;;5.7;5.2;;;;;;;23.53;31.89746;987.5963;;;;
2019/04/06 17:21:37;;;;;;;5.6;5.1;;;;;;;23.48;32.02441;987.6222;;;;
2019/04/06 17:24:00;;;;;;;5.9;5.3;;;;;;;23.47;32.07031;987.5338;;;;
2019/04/06 17:32:13;;;;;;;5.8;5.3;;;;;;;23.43;32.12695;987.5644;;;;
2019/04/06 17:34:08;;;;;;;5.8;5.2;;;;;;;23.42;32.12695;987.6443;;;;